sensor_id;sensor_type;location;lat;lon;timestamp;P1;durP1;ratioP1;P2;durP2;ratioP2
11588;SDS011;5850;51.360;12.362;2023-08-06T00:00:49;4.93;;;4.17;;
11588;SDS011;5850;51.360;12.362;2023-08-06T00:03:17;4.97;;;4.20;;
11588;SDS011;5850;51.360;12.362;2023-08-06T00:05:46;5.63;;;4.03;;
11588;SDS011;5850;51.360;12.362;2023-08-06T00:08:14;6.53;;;4.10;;
11588;SDS011;5850;51.360;12.362;2023-08-06T00:10:43;6.53;;;4.30;;
11588;SDS011;5850;51.360;12.362;2023-08-06T00:13:11;5.73;;;4.43;;
11588;SDS011;5850;51.360;12.362;2023-08-06T00:15:39;5.83;;;4.60;;
11588;SDS011;5850;51.360;12.362;2023-08-06T00:18:08;7.33;;;4.50;;
11588;SDS011;5850;51.360;12.362;2023-08-06T00:20:38;4.83;;;4.23;;
11588;SDS011;5850;51.360;12.362;2023-08-06T00:23:07;4.13;;;3.77;;
11588;SDS011;5850;51.360;12.362;2023-08-06T00:25:36;5.17;;;4.03;;
11588;SDS011;5850;51.360;12.362;2023-08-06T00:28:04;4.73;;;4.37;;
11588;SDS011;5850;51.360;12.362;2023-08-06T00:30:33;5.17;;;4.30;;
11588;SDS011;5850;51.360;12.362;2023-08-06T00:33:01;5.73;;;3.90;;
11588;SDS011;5850;51.360;12.362;2023-08-06T00:35:30;8.50;;;4.67;;
11588;SDS011;5850;51.360;12.362;2023-08-06T00:37:58;6.43;;;4.57;;
11588;SDS011;5850;51.360;12.362;2023-08-06T00:40:27;6.47;;;4.40;;
11588;SDS011;5850;51.360;12.362;2023-08-06T00:42:56;6.07;;;4.60;;
11588;SDS011;5850;51.360;12.362;2023-08-06T00:45:25;5.10;;;4.60;;
11588;SDS011;5850;51.360;12.362;2023-08-06T00:47:53;5.77;;;4.80;;
11588;SDS011;5850;51.360;12.362;2023-08-06T00:50:22;6.93;;;4.80;;
11588;SDS011;5850;51.360;12.362;2023-08-06T00:52:50;6.27;;;4.73;;
11588;SDS011;5850;51.360;12.362;2023-08-06T00:55:19;7.07;;;4.63;;
11588;SDS011;5850;51.360;12.362;2023-08-06T00:57:47;6.63;;;5.60;;
11588;SDS011;5850;51.360;12.362;2023-08-06T01:00:17;5.57;;;5.07;;
11588;SDS011;5850;51.360;12.362;2023-08-06T01:02:47;6.70;;;5.00;;
11588;SDS011;5850;51.360;12.362;2023-08-06T01:05:16;6.63;;;5.10;;
11588;SDS011;5850;51.360;12.362;2023-08-06T01:10:44;6.43;;;5.23;;
11588;SDS011;5850;51.360;12.362;2023-08-06T01:16:17;5.23;;;4.70;;
11588;SDS011;5850;51.360;12.362;2023-08-06T01:18:47;5.00;;;4.60;;
11588;SDS011;5850;51.360;12.362;2023-08-06T01:21:16;5.20;;;4.70;;
11588;SDS011;5850;51.360;12.362;2023-08-06T01:23:46;5.77;;;5.17;;
11588;SDS011;5850;51.360;12.362;2023-08-06T01:26:33;6.63;;;4.97;;
11588;SDS011;5850;51.360;12.362;2023-08-06T01:29:41;5.33;;;4.30;;
11588;SDS011;5850;51.360;12.362;2023-08-06T01:32:12;5.17;;;4.37;;
11588;SDS011;5850;51.360;12.362;2023-08-06T01:34:43;7.67;;;5.40;;
11588;SDS011;5850;51.360;12.362;2023-08-06T01:37:13;4.80;;;4.40;;
11588;SDS011;5850;51.360;12.362;2023-08-06T01:39:42;5.17;;;4.63;;
11588;SDS011;5850;51.360;12.362;2023-08-06T01:42:10;7.03;;;5.33;;
11588;SDS011;5850;51.360;12.362;2023-08-06T01:44:38;6.77;;;5.10;;
11588;SDS011;5850;51.360;12.362;2023-08-06T01:47:07;5.87;;;5.23;;
11588;SDS011;5850;51.360;12.362;2023-08-06T01:49:35;9.17;;;5.23;;
11588;SDS011;5850;51.360;12.362;2023-08-06T01:52:04;5.30;;;4.80;;
11588;SDS011;5850;51.360;12.362;2023-08-06T01:54:32;5.70;;;5.20;;
11588;SDS011;5850;51.360;12.362;2023-08-06T01:57:00;6.00;;;5.50;;
11588;SDS011;5850;51.360;12.362;2023-08-06T01:59:29;6.90;;;5.10;;
11588;SDS011;5850;51.360;12.362;2023-08-06T02:01:57;7.17;;;5.37;;
11588;SDS011;5850;51.360;12.362;2023-08-06T02:04:26;8.37;;;5.27;;
11588;SDS011;5850;51.360;12.362;2023-08-06T02:06:54;7.57;;;5.30;;
11588;SDS011;5850;51.360;12.362;2023-08-06T02:09:22;5.70;;;5.00;;
11588;SDS011;5850;51.360;12.362;2023-08-06T02:11:50;5.30;;;4.80;;
11588;SDS011;5850;51.360;12.362;2023-08-06T02:14:19;5.80;;;4.93;;
11588;SDS011;5850;51.360;12.362;2023-08-06T02:16:48;5.93;;;5.10;;
11588;SDS011;5850;51.360;12.362;2023-08-06T02:19:16;5.90;;;5.23;;
11588;SDS011;5850;51.360;12.362;2023-08-06T02:21:44;7.00;;;4.87;;
11588;SDS011;5850;51.360;12.362;2023-08-06T02:24:13;6.00;;;5.17;;
11588;SDS011;5850;51.360;12.362;2023-08-06T02:26:41;7.73;;;5.53;;
11588;SDS011;5850;51.360;12.362;2023-08-06T02:29:10;6.80;;;5.30;;
11588;SDS011;5850;51.360;12.362;2023-08-06T02:31:38;6.13;;;5.53;;
11588;SDS011;5850;51.360;12.362;2023-08-06T02:34:06;6.87;;;5.57;;
11588;SDS011;5850;51.360;12.362;2023-08-06T02:36:35;5.53;;;5.00;;
11588;SDS011;5850;51.360;12.362;2023-08-06T02:39:03;6.57;;;5.40;;
11588;SDS011;5850;51.360;12.362;2023-08-06T02:41:31;5.23;;;4.77;;
11588;SDS011;5850;51.360;12.362;2023-08-06T02:44:00;6.20;;;5.60;;
11588;SDS011;5850;51.360;12.362;2023-08-06T02:46:28;6.00;;;5.40;;
11588;SDS011;5850;51.360;12.362;2023-08-06T02:48:57;6.53;;;5.20;;
11588;SDS011;5850;51.360;12.362;2023-08-06T02:51:25;6.17;;;5.57;;
11588;SDS011;5850;51.360;12.362;2023-08-06T02:53:54;5.80;;;5.20;;
11588;SDS011;5850;51.360;12.362;2023-08-06T02:56:22;6.20;;;5.13;;
11588;SDS011;5850;51.360;12.362;2023-08-06T02:58:52;7.37;;;5.63;;
11588;SDS011;5850;51.360;12.362;2023-08-06T03:01:20;6.30;;;5.70;;
11588;SDS011;5850;51.360;12.362;2023-08-06T03:03:49;6.97;;;6.03;;
11588;SDS011;5850;51.360;12.362;2023-08-06T03:06:18;6.80;;;5.53;;
11588;SDS011;5850;51.360;12.362;2023-08-06T03:08:46;6.10;;;5.20;;
11588;SDS011;5850;51.360;12.362;2023-08-06T03:11:14;5.30;;;4.80;;
11588;SDS011;5850;51.360;12.362;2023-08-06T03:13:43;5.90;;;5.40;;
11588;SDS011;5850;51.360;12.362;2023-08-06T03:16:11;8.60;;;5.33;;
11588;SDS011;5850;51.360;12.362;2023-08-06T03:18:40;7.23;;;5.57;;
11588;SDS011;5850;51.360;12.362;2023-08-06T03:21:08;6.43;;;5.83;;
11588;SDS011;5850;51.360;12.362;2023-08-06T03:23:37;5.60;;;5.10;;
11588;SDS011;5850;51.360;12.362;2023-08-06T03:26:05;8.10;;;5.93;;
11588;SDS011;5850;51.360;12.362;2023-08-06T03:28:33;6.17;;;5.57;;
11588;SDS011;5850;51.360;12.362;2023-08-06T03:31:02;6.10;;;5.50;;
11588;SDS011;5850;51.360;12.362;2023-08-06T03:33:31;6.80;;;5.50;;
11588;SDS011;5850;51.360;12.362;2023-08-06T03:35:59;7.47;;;5.77;;
11588;SDS011;5850;51.360;12.362;2023-08-06T03:38:27;7.27;;;5.70;;
11588;SDS011;5850;51.360;12.362;2023-08-06T03:40:56;5.80;;;5.10;;
11588;SDS011;5850;51.360;12.362;2023-08-06T03:43:24;6.70;;;5.70;;
11588;SDS011;5850;51.360;12.362;2023-08-06T03:45:52;6.10;;;5.53;;
11588;SDS011;5850;51.360;12.362;2023-08-06T03:48:20;6.17;;;5.57;;
11588;SDS011;5850;51.360;12.362;2023-08-06T03:50:49;6.17;;;5.53;;
11588;SDS011;5850;51.360;12.362;2023-08-06T03:53:17;8.37;;;6.07;;
11588;SDS011;5850;51.360;12.362;2023-08-06T03:55:45;6.60;;;5.23;;
11588;SDS011;5850;51.360;12.362;2023-08-06T03:58:13;7.10;;;6.07;;
11588;SDS011;5850;51.360;12.362;2023-08-06T04:00:42;8.17;;;6.27;;
11588;SDS011;5850;51.360;12.362;2023-08-06T04:03:10;8.20;;;6.40;;
11588;SDS011;5850;51.360;12.362;2023-08-06T04:05:39;7.07;;;6.37;;
11588;SDS011;5850;51.360;12.362;2023-08-06T04:08:07;7.93;;;5.70;;
11588;SDS011;5850;51.360;12.362;2023-08-06T04:10:36;6.73;;;6.03;;
11588;SDS011;5850;51.360;12.362;2023-08-06T04:13:04;8.23;;;6.00;;
11588;SDS011;5850;51.360;12.362;2023-08-06T04:15:33;7.07;;;5.20;;
11588;SDS011;5850;51.360;12.362;2023-08-06T04:18:01;6.47;;;5.83;;
11588;SDS011;5850;51.360;12.362;2023-08-06T04:20:30;7.23;;;6.53;;
11588;SDS011;5850;51.360;12.362;2023-08-06T04:22:58;5.90;;;5.40;;
11588;SDS011;5850;51.360;12.362;2023-08-06T04:25:27;6.97;;;5.20;;
11588;SDS011;5850;51.360;12.362;2023-08-06T04:27:55;5.67;;;5.13;;
11588;SDS011;5850;51.360;12.362;2023-08-06T04:30:24;5.90;;;5.00;;
11588;SDS011;5850;51.360;12.362;2023-08-06T04:32:52;15.47;;;7.37;;
11588;SDS011;5850;51.360;12.362;2023-08-06T04:35:21;5.67;;;5.10;;
11588;SDS011;5850;51.360;12.362;2023-08-06T04:37:49;6.33;;;5.23;;
11588;SDS011;5850;51.360;12.362;2023-08-06T04:40:18;5.90;;;5.30;;
11588;SDS011;5850;51.360;12.362;2023-08-06T04:42:46;5.70;;;5.10;;
11588;SDS011;5850;51.360;12.362;2023-08-06T04:45:15;6.20;;;5.40;;
11588;SDS011;5850;51.360;12.362;2023-08-06T04:47:43;6.70;;;5.77;;
11588;SDS011;5850;51.360;12.362;2023-08-06T04:50:11;7.07;;;4.50;;
11588;SDS011;5850;51.360;12.362;2023-08-06T04:52:40;5.97;;;5.27;;
11588;SDS011;5850;51.360;12.362;2023-08-06T04:55:08;6.43;;;5.33;;
11588;SDS011;5850;51.360;12.362;2023-08-06T04:57:36;7.20;;;5.73;;
11588;SDS011;5850;51.360;12.362;2023-08-06T05:00:05;6.00;;;5.00;;
11588;SDS011;5850;51.360;12.362;2023-08-06T05:02:33;5.20;;;4.30;;
11588;SDS011;5850;51.360;12.362;2023-08-06T05:05:04;4.87;;;4.30;;
11588;SDS011;5850;51.360;12.362;2023-08-06T05:07:32;3.73;;;3.43;;
11588;SDS011;5850;51.360;12.362;2023-08-06T05:10:01;4.00;;;3.60;;
11588;SDS011;5850;51.360;12.362;2023-08-06T05:12:30;3.40;;;3.10;;
11588;SDS011;5850;51.360;12.362;2023-08-06T05:14:59;3.90;;;3.40;;
11588;SDS011;5850;51.360;12.362;2023-08-06T05:17:27;5.00;;;3.13;;
11588;SDS011;5850;51.360;12.362;2023-08-06T05:19:55;6.47;;;3.10;;
11588;SDS011;5850;51.360;12.362;2023-08-06T05:22:24;3.50;;;3.20;;
11588;SDS011;5850;51.360;12.362;2023-08-06T05:24:52;3.33;;;3.03;;
11588;SDS011;5850;51.360;12.362;2023-08-06T05:27:21;2.83;;;2.63;;
11588;SDS011;5850;51.360;12.362;2023-08-06T05:29:49;2.97;;;2.70;;
11588;SDS011;5850;51.360;12.362;2023-08-06T05:32:17;3.57;;;2.90;;
11588;SDS011;5850;51.360;12.362;2023-08-06T05:34:46;3.07;;;2.87;;
11588;SDS011;5850;51.360;12.362;2023-08-06T05:37:17;3.70;;;2.60;;
11588;SDS011;5850;51.360;12.362;2023-08-06T05:39:46;2.97;;;2.70;;
11588;SDS011;5850;51.360;12.362;2023-08-06T05:42:14;3.40;;;2.60;;
11588;SDS011;5850;51.360;12.362;2023-08-06T05:44:43;2.90;;;2.70;;
11588;SDS011;5850;51.360;12.362;2023-08-06T05:47:11;2.87;;;2.67;;
11588;SDS011;5850;51.360;12.362;2023-08-06T05:49:39;4.57;;;2.50;;
11588;SDS011;5850;51.360;12.362;2023-08-06T05:52:08;5.00;;;2.67;;
11588;SDS011;5850;51.360;12.362;2023-08-06T05:54:36;2.63;;;2.43;;
11588;SDS011;5850;51.360;12.362;2023-08-06T05:57:06;2.93;;;2.73;;
11588;SDS011;5850;51.360;12.362;2023-08-06T05:59:35;3.97;;;2.40;;
11588;SDS011;5850;51.360;12.362;2023-08-06T06:02:03;2.80;;;2.30;;
11588;SDS011;5850;51.360;12.362;2023-08-06T06:04:31;3.70;;;2.73;;
11588;SDS011;5850;51.360;12.362;2023-08-06T06:07:00;2.30;;;2.10;;
11588;SDS011;5850;51.360;12.362;2023-08-06T06:09:28;2.80;;;2.17;;
11588;SDS011;5850;51.360;12.362;2023-08-06T06:11:57;2.60;;;2.40;;
11588;SDS011;5850;51.360;12.362;2023-08-06T06:14:25;2.10;;;1.97;;
11588;SDS011;5850;51.360;12.362;2023-08-06T06:16:53;2.37;;;2.17;;
11588;SDS011;5850;51.360;12.362;2023-08-06T06:19:22;3.17;;;2.40;;
11588;SDS011;5850;51.360;12.362;2023-08-06T06:21:54;2.23;;;2.03;;
11588;SDS011;5850;51.360;12.362;2023-08-06T06:24:24;2.27;;;2.07;;
11588;SDS011;5850;51.360;12.362;2023-08-06T06:26:52;2.90;;;2.20;;
11588;SDS011;5850;51.360;12.362;2023-08-06T06:29:21;1.90;;;1.80;;
11588;SDS011;5850;51.360;12.362;2023-08-06T06:31:49;2.23;;;2.03;;
11588;SDS011;5850;51.360;12.362;2023-08-06T06:34:18;2.60;;;2.40;;
11588;SDS011;5850;51.360;12.362;2023-08-06T06:36:46;2.80;;;2.30;;
11588;SDS011;5850;51.360;12.362;2023-08-06T06:39:15;2.53;;;2.33;;
11588;SDS011;5850;51.360;12.362;2023-08-06T06:41:44;2.67;;;2.47;;
11588;SDS011;5850;51.360;12.362;2023-08-06T06:44:13;3.60;;;3.30;;
11588;SDS011;5850;51.360;12.362;2023-08-06T06:46:41;2.63;;;2.43;;
11588;SDS011;5850;51.360;12.362;2023-08-06T06:49:10;2.63;;;2.30;;
11588;SDS011;5850;51.360;12.362;2023-08-06T06:51:38;2.47;;;2.27;;
11588;SDS011;5850;51.360;12.362;2023-08-06T06:54:06;3.10;;;2.70;;
11588;SDS011;5850;51.360;12.362;2023-08-06T06:56:35;3.70;;;2.37;;
11588;SDS011;5850;51.360;12.362;2023-08-06T06:59:04;2.73;;;2.53;;
11588;SDS011;5850;51.360;12.362;2023-08-06T07:01:32;2.67;;;2.47;;
11588;SDS011;5850;51.360;12.362;2023-08-06T07:04:01;2.87;;;2.60;;
11588;SDS011;5850;51.360;12.362;2023-08-06T07:06:31;3.23;;;2.57;;
11588;SDS011;5850;51.360;12.362;2023-08-06T07:08:59;3.67;;;3.17;;
11588;SDS011;5850;51.360;12.362;2023-08-06T07:11:27;3.27;;;2.73;;
11588;SDS011;5850;51.360;12.362;2023-08-06T07:13:56;2.60;;;2.40;;
11588;SDS011;5850;51.360;12.362;2023-08-06T07:16:25;2.43;;;2.20;;
11588;SDS011;5850;51.360;12.362;2023-08-06T07:18:55;2.13;;;1.93;;
11588;SDS011;5850;51.360;12.362;2023-08-06T07:21:23;2.47;;;2.23;;
11588;SDS011;5850;51.360;12.362;2023-08-06T07:23:52;2.87;;;2.47;;
11588;SDS011;5850;51.360;12.362;2023-08-06T07:26:20;2.90;;;2.20;;
11588;SDS011;5850;51.360;12.362;2023-08-06T07:28:49;2.30;;;2.10;;
11588;SDS011;5850;51.360;12.362;2023-08-06T07:31:17;3.60;;;2.17;;
11588;SDS011;5850;51.360;12.362;2023-08-06T07:33:45;5.07;;;2.30;;
11588;SDS011;5850;51.360;12.362;2023-08-06T07:36:14;3.77;;;2.70;;
11588;SDS011;5850;51.360;12.362;2023-08-06T07:38:43;2.70;;;2.03;;
11588;SDS011;5850;51.360;12.362;2023-08-06T07:41:11;5.17;;;2.47;;
11588;SDS011;5850;51.360;12.362;2023-08-06T07:43:39;3.20;;;2.90;;
11588;SDS011;5850;51.360;12.362;2023-08-06T07:46:08;3.10;;;2.40;;
11588;SDS011;5850;51.360;12.362;2023-08-06T07:48:38;2.93;;;1.97;;
11588;SDS011;5850;51.360;12.362;2023-08-06T07:51:06;2.30;;;1.90;;
11588;SDS011;5850;51.360;12.362;2023-08-06T07:53:35;2.70;;;2.50;;
11588;SDS011;5850;51.360;12.362;2023-08-06T07:56:03;2.40;;;2.20;;
11588;SDS011;5850;51.360;12.362;2023-08-06T07:58:31;2.33;;;2.13;;
11588;SDS011;5850;51.360;12.362;2023-08-06T08:01:00;1.90;;;1.80;;
11588;SDS011;5850;51.360;12.362;2023-08-06T08:03:31;2.03;;;1.83;;
11588;SDS011;5850;51.360;12.362;2023-08-06T08:05:59;2.47;;;2.27;;
11588;SDS011;5850;51.360;12.362;2023-08-06T08:08:28;2.20;;;2.00;;
11588;SDS011;5850;51.360;12.362;2023-08-06T08:10:56;2.97;;;2.07;;
11588;SDS011;5850;51.360;12.362;2023-08-06T08:13:25;3.60;;;1.90;;
11588;SDS011;5850;51.360;12.362;2023-08-06T08:15:57;2.67;;;2.33;;
11588;SDS011;5850;51.360;12.362;2023-08-06T08:18:26;2.80;;;2.13;;
11588;SDS011;5850;51.360;12.362;2023-08-06T08:20:56;2.30;;;2.13;;
11588;SDS011;5850;51.360;12.362;2023-08-06T08:23:24;3.20;;;2.20;;
11588;SDS011;5850;51.360;12.362;2023-08-06T08:25:53;2.60;;;2.40;;
11588;SDS011;5850;51.360;12.362;2023-08-06T08:28:21;3.27;;;2.07;;
11588;SDS011;5850;51.360;12.362;2023-08-06T08:30:50;3.53;;;2.43;;
11588;SDS011;5850;51.360;12.362;2023-08-06T08:33:18;2.77;;;2.13;;
11588;SDS011;5850;51.360;12.362;2023-08-06T08:35:46;2.17;;;2.00;;
11588;SDS011;5850;51.360;12.362;2023-08-06T08:38:15;2.47;;;2.27;;
11588;SDS011;5850;51.360;12.362;2023-08-06T08:40:46;2.80;;;2.30;;
11588;SDS011;5850;51.360;12.362;2023-08-06T08:43:22;2.90;;;2.27;;
11588;SDS011;5850;51.360;12.362;2023-08-06T08:45:51;2.20;;;2.00;;
11588;SDS011;5850;51.360;12.362;2023-08-06T08:48:22;1.90;;;1.80;;
11588;SDS011;5850;51.360;12.362;2023-08-06T08:50:50;2.40;;;2.20;;
11588;SDS011;5850;51.360;12.362;2023-08-06T08:53:19;2.00;;;1.90;;
11588;SDS011;5850;51.360;12.362;2023-08-06T08:55:49;1.90;;;1.80;;
11588;SDS011;5850;51.360;12.362;2023-08-06T08:58:17;2.53;;;2.33;;
11588;SDS011;5850;51.360;12.362;2023-08-06T09:00:46;1.83;;;1.73;;
11588;SDS011;5850;51.360;12.362;2023-08-06T09:03:15;2.40;;;2.20;;
11588;SDS011;5850;51.360;12.362;2023-08-06T09:05:45;2.00;;;1.80;;
11588;SDS011;5850;51.360;12.362;2023-08-06T09:08:18;2.30;;;2.10;;
11588;SDS011;5850;51.360;12.362;2023-08-06T09:10:53;4.60;;;3.43;;
11588;SDS011;5850;51.360;12.362;2023-08-06T09:13:22;2.63;;;2.43;;
11588;SDS011;5850;51.360;12.362;2023-08-06T09:15:52;3.20;;;2.90;;
11588;SDS011;5850;51.360;12.362;2023-08-06T09:18:26;3.67;;;2.50;;
11588;SDS011;5850;51.360;12.362;2023-08-06T09:20:56;3.67;;;3.23;;
11588;SDS011;5850;51.360;12.362;2023-08-06T09:23:28;3.40;;;2.53;;
11588;SDS011;5850;51.360;12.362;2023-08-06T09:25:57;2.63;;;2.43;;
11588;SDS011;5850;51.360;12.362;2023-08-06T09:28:37;2.37;;;2.17;;
11588;SDS011;5850;51.360;12.362;2023-08-06T09:31:09;2.43;;;1.97;;
11588;SDS011;5850;51.360;12.362;2023-08-06T09:33:37;2.27;;;2.07;;
11588;SDS011;5850;51.360;12.362;2023-08-06T09:36:11;3.30;;;2.40;;
11588;SDS011;5850;51.360;12.362;2023-08-06T09:38:40;2.20;;;2.03;;
11588;SDS011;5850;51.360;12.362;2023-08-06T09:41:08;2.30;;;2.10;;
11588;SDS011;5850;51.360;12.362;2023-08-06T09:43:43;2.10;;;1.90;;
11588;SDS011;5850;51.360;12.362;2023-08-06T09:46:14;3.67;;;2.10;;
11588;SDS011;5850;51.360;12.362;2023-08-06T09:48:47;2.40;;;2.20;;
11588;SDS011;5850;51.360;12.362;2023-08-06T09:51:16;1.90;;;1.70;;
11588;SDS011;5850;51.360;12.362;2023-08-06T09:53:45;3.30;;;1.80;;
11588;SDS011;5850;51.360;12.362;2023-08-06T09:56:14;1.70;;;1.60;;
11588;SDS011;5850;51.360;12.362;2023-08-06T09:58:43;2.10;;;1.90;;
11588;SDS011;5850;51.360;12.362;2023-08-06T10:01:12;1.90;;;1.80;;
11588;SDS011;5850;51.360;12.362;2023-08-06T10:03:41;2.20;;;1.80;;
11588;SDS011;5850;51.360;12.362;2023-08-06T10:06:09;3.57;;;1.87;;
11588;SDS011;5850;51.360;12.362;2023-08-06T10:08:39;2.77;;;2.03;;
11588;SDS011;5850;51.360;12.362;2023-08-06T10:11:08;2.20;;;1.80;;
11588;SDS011;5850;51.360;12.362;2023-08-06T10:13:39;2.00;;;1.90;;
11588;SDS011;5850;51.360;12.362;2023-08-06T10:16:07;1.63;;;1.53;;
11588;SDS011;5850;51.360;12.362;2023-08-06T10:18:36;2.27;;;2.00;;
11588;SDS011;5850;51.360;12.362;2023-08-06T10:21:09;2.07;;;1.87;;
11588;SDS011;5850;51.360;12.362;2023-08-06T10:23:39;2.20;;;2.00;;
11588;SDS011;5850;51.360;12.362;2023-08-06T10:26:08;3.03;;;2.20;;
11588;SDS011;5850;51.360;12.362;2023-08-06T10:28:37;1.83;;;1.73;;
11588;SDS011;5850;51.360;12.362;2023-08-06T10:31:06;1.97;;;1.60;;
11588;SDS011;5850;51.360;12.362;2023-08-06T10:33:42;2.20;;;2.03;;
11588;SDS011;5850;51.360;12.362;2023-08-06T10:36:12;2.17;;;1.80;;
11588;SDS011;5850;51.360;12.362;2023-08-06T10:38:48;1.90;;;1.80;;
11588;SDS011;5850;51.360;12.362;2023-08-06T10:41:29;2.10;;;2.00;;
11588;SDS011;5850;51.360;12.362;2023-08-06T10:44:10;2.57;;;2.10;;
11588;SDS011;5850;51.360;12.362;2023-08-06T10:46:38;2.17;;;1.90;;
11588;SDS011;5850;51.360;12.362;2023-08-06T10:49:07;2.27;;;2.00;;
11588;SDS011;5850;51.360;12.362;2023-08-06T10:51:35;2.63;;;1.97;;
11588;SDS011;5850;51.360;12.362;2023-08-06T10:54:04;1.87;;;1.77;;
11588;SDS011;5850;51.360;12.362;2023-08-06T10:56:39;1.73;;;1.63;;
11588;SDS011;5850;51.360;12.362;2023-08-06T10:59:08;2.20;;;2.00;;
11588;SDS011;5850;51.360;12.362;2023-08-06T11:01:37;1.90;;;1.80;;
11588;SDS011;5850;51.360;12.362;2023-08-06T11:04:06;2.30;;;2.10;;
11588;SDS011;5850;51.360;12.362;2023-08-06T11:06:35;3.00;;;1.80;;
11588;SDS011;5850;51.360;12.362;2023-08-06T11:09:04;1.80;;;1.70;;
11588;SDS011;5850;51.360;12.362;2023-08-06T11:11:32;2.00;;;1.60;;
11588;SDS011;5850;51.360;12.362;2023-08-06T11:14:00;2.00;;;1.90;;
11588;SDS011;5850;51.360;12.362;2023-08-06T11:16:29;2.40;;;2.17;;
11588;SDS011;5850;51.360;12.362;2023-08-06T11:18:57;2.20;;;1.80;;
11588;SDS011;5850;51.360;12.362;2023-08-06T11:21:26;2.13;;;1.93;;
11588;SDS011;5850;51.360;12.362;2023-08-06T11:23:55;2.57;;;2.00;;
11588;SDS011;5850;51.360;12.362;2023-08-06T11:26:24;1.80;;;1.60;;
11588;SDS011;5850;51.360;12.362;2023-08-06T11:28:53;3.70;;;1.90;;
11588;SDS011;5850;51.360;12.362;2023-08-06T11:31:22;1.60;;;1.50;;
11588;SDS011;5850;51.360;12.362;2023-08-06T11:33:51;2.17;;;1.97;;
11588;SDS011;5850;51.360;12.362;2023-08-06T11:39:01;2.17;;;2.07;;
11588;SDS011;5850;51.360;12.362;2023-08-06T11:41:31;1.93;;;1.83;;
11588;SDS011;5850;51.360;12.362;2023-08-06T11:44:00;3.50;;;1.67;;
11588;SDS011;5850;51.360;12.362;2023-08-06T11:46:28;1.70;;;1.60;;
11588;SDS011;5850;51.360;12.362;2023-08-06T11:48:57;1.70;;;1.60;;
11588;SDS011;5850;51.360;12.362;2023-08-06T11:51:26;1.50;;;1.40;;
11588;SDS011;5850;51.360;12.362;2023-08-06T11:53:55;1.83;;;1.73;;
11588;SDS011;5850;51.360;12.362;2023-08-06T11:56:25;1.80;;;1.70;;
11588;SDS011;5850;51.360;12.362;2023-08-06T11:58:54;2.73;;;1.63;;
11588;SDS011;5850;51.360;12.362;2023-08-06T12:01:23;1.90;;;1.70;;
11588;SDS011;5850;51.360;12.362;2023-08-06T12:03:53;1.87;;;1.67;;
11588;SDS011;5850;51.360;12.362;2023-08-06T12:06:27;1.77;;;1.67;;
11588;SDS011;5850;51.360;12.362;2023-08-06T12:08:55;2.20;;;2.00;;
11588;SDS011;5850;51.360;12.362;2023-08-06T12:11:23;1.73;;;1.63;;
11588;SDS011;5850;51.360;12.362;2023-08-06T12:13:52;2.30;;;2.07;;
11588;SDS011;5850;51.360;12.362;2023-08-06T12:16:23;1.70;;;1.60;;
11588;SDS011;5850;51.360;12.362;2023-08-06T12:18:51;2.10;;;1.80;;
11588;SDS011;5850;51.360;12.362;2023-08-06T12:21:19;2.70;;;1.80;;
11588;SDS011;5850;51.360;12.362;2023-08-06T12:23:48;2.20;;;2.10;;
11588;SDS011;5850;51.360;12.362;2023-08-06T12:26:16;1.77;;;1.53;;
11588;SDS011;5850;51.360;12.362;2023-08-06T12:28:45;1.77;;;1.67;;
11588;SDS011;5850;51.360;12.362;2023-08-06T12:31:13;1.63;;;1.53;;
11588;SDS011;5850;51.360;12.362;2023-08-06T12:33:42;1.97;;;1.50;;
11588;SDS011;5850;51.360;12.362;2023-08-06T12:36:10;1.60;;;1.50;;
11588;SDS011;5850;51.360;12.362;2023-08-06T12:38:39;2.03;;;1.83;;
11588;SDS011;5850;51.360;12.362;2023-08-06T12:41:07;2.70;;;2.40;;
11588;SDS011;5850;51.360;12.362;2023-08-06T12:43:35;2.23;;;2.00;;
11588;SDS011;5850;51.360;12.362;2023-08-06T12:46:04;1.70;;;1.60;;
11588;SDS011;5850;51.360;12.362;2023-08-06T12:48:32;1.70;;;1.60;;
11588;SDS011;5850;51.360;12.362;2023-08-06T12:51:00;1.70;;;1.57;;
11588;SDS011;5850;51.360;12.362;2023-08-06T12:53:28;11.10;;;9.23;;
11588;SDS011;5850;51.360;12.362;2023-08-06T12:55:57;5.27;;;4.00;;
11588;SDS011;5850;51.360;12.362;2023-08-06T12:58:25;2.90;;;2.53;;
11588;SDS011;5850;51.360;12.362;2023-08-06T13:00:53;3.00;;;1.93;;
11588;SDS011;5850;51.360;12.362;2023-08-06T13:03:22;1.60;;;1.50;;
11588;SDS011;5850;51.360;12.362;2023-08-06T13:05:50;2.27;;;1.83;;
11588;SDS011;5850;51.360;12.362;2023-08-06T13:08:18;1.70;;;1.43;;
11588;SDS011;5850;51.360;12.362;2023-08-06T13:10:47;1.90;;;1.80;;
11588;SDS011;5850;51.360;12.362;2023-08-06T13:13:15;1.80;;;1.70;;
11588;SDS011;5850;51.360;12.362;2023-08-06T13:15:44;1.80;;;1.70;;
11588;SDS011;5850;51.360;12.362;2023-08-06T13:18:12;1.60;;;1.50;;
11588;SDS011;5850;51.360;12.362;2023-08-06T13:20:40;2.77;;;1.97;;
11588;SDS011;5850;51.360;12.362;2023-08-06T13:23:08;1.67;;;1.57;;
11588;SDS011;5850;51.360;12.362;2023-08-06T13:25:37;2.10;;;1.70;;
11588;SDS011;5850;51.360;12.362;2023-08-06T13:28:06;2.87;;;1.63;;
11588;SDS011;5850;51.360;12.362;2023-08-06T13:30:34;1.70;;;1.50;;
11588;SDS011;5850;51.360;12.362;2023-08-06T13:33:08;2.03;;;1.70;;
11588;SDS011;5850;51.360;12.362;2023-08-06T13:35:37;2.03;;;1.83;;
11588;SDS011;5850;51.360;12.362;2023-08-06T13:38:06;1.70;;;1.60;;
11588;SDS011;5850;51.360;12.362;2023-08-06T13:40:35;2.33;;;1.90;;
11588;SDS011;5850;51.360;12.362;2023-08-06T13:43:03;1.60;;;1.50;;
11588;SDS011;5850;51.360;12.362;2023-08-06T13:45:31;1.63;;;1.53;;
11588;SDS011;5850;51.360;12.362;2023-08-06T13:48:01;1.80;;;1.70;;
11588;SDS011;5850;51.360;12.362;2023-08-06T13:50:30;2.27;;;1.50;;
11588;SDS011;5850;51.360;12.362;2023-08-06T13:52:58;3.50;;;3.20;;
11588;SDS011;5850;51.360;12.362;2023-08-06T13:55:27;3.17;;;2.87;;
11588;SDS011;5850;51.360;12.362;2023-08-06T13:57:55;1.77;;;1.67;;
11588;SDS011;5850;51.360;12.362;2023-08-06T14:00:24;1.83;;;1.73;;
11588;SDS011;5850;51.360;12.362;2023-08-06T14:02:52;1.73;;;1.50;;
11588;SDS011;5850;51.360;12.362;2023-08-06T14:05:20;2.40;;;2.17;;
11588;SDS011;5850;51.360;12.362;2023-08-06T14:07:49;2.17;;;1.83;;
11588;SDS011;5850;51.360;12.362;2023-08-06T14:10:17;2.20;;;1.77;;
11588;SDS011;5850;51.360;12.362;2023-08-06T14:12:45;1.67;;;1.57;;
11588;SDS011;5850;51.360;12.362;2023-08-06T14:15:26;1.47;;;1.37;;
11588;SDS011;5850;51.360;12.362;2023-08-06T14:17:54;1.93;;;1.53;;
11588;SDS011;5850;51.360;12.362;2023-08-06T14:20:23;1.83;;;1.67;;
11588;SDS011;5850;51.360;12.362;2023-08-06T14:22:51;1.90;;;1.70;;
11588;SDS011;5850;51.360;12.362;2023-08-06T14:25:20;1.63;;;1.53;;
11588;SDS011;5850;51.360;12.362;2023-08-06T14:27:48;2.03;;;1.47;;
11588;SDS011;5850;51.360;12.362;2023-08-06T14:30:16;1.70;;;1.50;;
11588;SDS011;5850;51.360;12.362;2023-08-06T14:32:45;1.60;;;1.50;;
11588;SDS011;5850;51.360;12.362;2023-08-06T14:35:13;2.47;;;2.00;;
11588;SDS011;5850;51.360;12.362;2023-08-06T14:37:41;1.70;;;1.60;;
11588;SDS011;5850;51.360;12.362;2023-08-06T14:40:11;3.27;;;1.50;;
11588;SDS011;5850;51.360;12.362;2023-08-06T14:42:40;1.40;;;1.30;;
11588;SDS011;5850;51.360;12.362;2023-08-06T14:45:08;1.50;;;1.40;;
11588;SDS011;5850;51.360;12.362;2023-08-06T14:47:36;2.03;;;1.73;;
11588;SDS011;5850;51.360;12.362;2023-08-06T14:50:05;1.33;;;1.23;;
11588;SDS011;5850;51.360;12.362;2023-08-06T14:52:33;1.40;;;1.30;;
11588;SDS011;5850;51.360;12.362;2023-08-06T14:55:02;1.57;;;1.47;;
11588;SDS011;5850;51.360;12.362;2023-08-06T14:57:30;1.70;;;1.60;;
11588;SDS011;5850;51.360;12.362;2023-08-06T14:59:59;2.33;;;1.67;;
11588;SDS011;5850;51.360;12.362;2023-08-06T15:02:27;2.23;;;1.40;;
11588;SDS011;5850;51.360;12.362;2023-08-06T15:04:55;1.80;;;1.63;;
11588;SDS011;5850;51.360;12.362;2023-08-06T15:07:24;1.70;;;1.60;;